Time;durP1;ratioP1;P1;durP2;ratioP2;P2;SDS_P1;SDS_P2;PMS_P1;PMS_P2;Temp;Humidity;BMP_temperature;BMP_pressure;BME280_temperature;BME280_humidity;BME280_pressure;Samples;Min_cycle;Max_cycle;Signal;HPM_P1;HPM_P2
2020/04/20 00:01:26;;;;;;;3.03;2.49;;;;;;;19.27;39.01;100406.09;;;;-54
2020/04/20 00:04:26;;;;;;;2.63;2.17;;;;;;;19.27;39.02;100406.03;;;;-53
2020/04/20 00:07:26;;;;;;;2.40;2.19;;;;;;;19.27;38.96;100415.80;;;;-54
2020/04/20 00:10:26;;;;;;;2.52;2.30;;;;;;;19.26;38.97;100413.34;;;;-55
2020/04/20 00:13:26;;;;;;;2.80;2.38;;;;;;;19.26;38.97;100416.36;;;;-53
2020/04/20 00:16:26;;;;;;;2.37;2.14;;;;;;;19.25;38.87;100409.28;;;;-55
2020/04/20 00:19:26;;;;;;;2.67;2.35;;;;;;;19.25;38.86;100407.61;;;;-53
2020/04/20 00:22:26;;;;;;;2.39;2.19;;;;;;;19.24;38.91;100410.48;;;;-54
2020/04/20 00:25:26;;;;;;;2.45;2.25;;;;;;;19.24;38.90;100403.63;;;;-53
2020/04/20 00:28:26;;;;;;;2.51;2.23;;;;;;;19.23;38.87;100402.51;;;;-53
2020/04/20 00:31:26;;;;;;;2.64;2.30;;;;;;;19.23;38.92;100394.64;;;;-53
2020/04/20 00:34:26;;;;;;;2.39;2.19;;;;;;;19.24;38.83;100402.11;;;;-53
2020/04/20 00:37:26;;;;;;;2.50;2.27;;;;;;;19.22;38.86;100393.76;;;;-54
2020/04/20 00:40:27;;;;;;;2.50;2.30;;;;;;;19.23;38.88;100390.34;;;;-53
2020/04/20 00:43:26;;;;;;;2.31;2.11;;;;;;;19.22;38.84;100390.41;;;;-53
2020/04/20 00:46:26;;;;;;;2.60;2.40;;;;;;;19.21;38.83;100393.88;;;;-53
2020/04/20 00:49:26;;;;;;;2.59;2.37;;;;;;;19.21;38.86;100398.23;;;;-58
2020/04/20 00:52:26;;;;;;;2.47;2.23;;;;;;;19.21;38.82;100388.59;;;;-58
2020/04/20 00:55:26;;;;;;;2.39;2.16;;;;;;;19.21;38.87;100394.45;;;;-58
2020/04/20 00:58:26;;;;;;;3.05;2.34;;;;;;;19.21;38.83;100394.88;;;;-57
2020/04/20 01:02:00;;;;;;;2.56;2.32;;;;;;;19.20;38.84;100396.18;;;;-58
2020/04/20 01:10:45;;;;;;;2.42;2.22;;;;;;;19.19;38.85;100395.63;;;;-58
2020/04/20 01:13:50;;;;;;;2.78;2.31;;;;;;;19.19;38.83;100391.95;;;;-58
2020/04/20 01:16:26;;;;;;;3.47;2.52;;;;;;;19.19;38.79;100392.52;;;;-57
2020/04/20 01:19:26;;;;;;;2.76;2.39;;;;;;;19.18;38.79;100390.66;;;;-58
2020/04/20 01:22:26;;;;;;;2.37;2.17;;;;;;;19.18;38.79;100394.75;;;;-59
2020/04/20 01:25:26;;;;;;;3.01;2.37;;;;;;;19.18;38.75;100399.56;;;;-53
2020/04/20 01:28:26;;;;;;;2.41;2.21;;;;;;;19.17;38.77;100398.48;;;;-53
2020/04/20 01:31:26;;;;;;;2.86;2.43;;;;;;;19.17;38.79;100397.31;;;;-55
2020/04/20 01:34:26;;;;;;;2.60;2.40;;;;;;;19.18;38.78;100396.31;;;;-55
2020/04/20 01:37:26;;;;;;;2.40;2.20;;;;;;;19.17;38.78;100391.31;;;;-54
2020/04/20 01:40:26;;;;;;;2.49;2.15;;;;;;;19.17;38.72;100396.00;;;;-53
2020/04/20 01:43:26;;;;;;;2.62;2.36;;;;;;;19.16;38.75;100393.75;;;;-55
2020/04/20 01:46:26;;;;;;;2.62;2.30;;;;;;;19.16;38.75;100396.33;;;;-55
2020/04/20 01:49:26;;;;;;;2.52;2.31;;;;;;;19.16;38.69;100397.80;;;;-53
2020/04/20 01:52:26;;;;;;;2.48;2.24;;;;;;;19.15;38.77;100398.06;;;;-53
2020/04/20 01:55:26;;;;;;;2.59;2.38;;;;;;;19.16;38.73;100408.48;;;;-52
2020/04/20 01:58:27;;;;;;;2.75;2.31;;;;;;;19.15;38.69;100404.42;;;;-55
2020/04/20 02:01:26;;;;;;;2.62;2.31;;;;;;;19.15;38.68;100409.97;;;;-54
2020/04/20 02:04:26;;;;;;;2.54;2.32;;;;;;;19.14;38.72;100409.47;;;;-53
2020/04/20 02:07:26;;;;;;;2.30;2.10;;;;;;;19.14;38.73;100419.45;;;;-53
2020/04/20 02:10:26;;;;;;;2.96;2.49;;;;;;;19.13;38.72;100417.56;;;;-53
2020/04/20 02:14:08;;;;;;;2.44;2.24;;;;;;;19.13;38.72;100422.25;;;;-54
2020/04/20 02:16:35;;;;;;;2.67;2.38;;;;;;;19.13;38.67;100425.48;;;;-53
2020/04/20 02:19:48;;;;;;;2.73;2.44;;;;;;;19.13;38.73;100429.38;;;;-54
2020/04/20 02:22:27;;;;;;;2.55;2.33;;;;;;;19.12;38.70;100427.86;;;;-53
2020/04/20 02:25:26;;;;;;;2.59;2.39;;;;;;;19.13;38.70;100427.59;;;;-54
2020/04/20 02:28:26;;;;;;;2.47;2.24;;;;;;;19.11;38.71;100432.50;;;;-53
2020/04/20 02:31:26;;;;;;;2.49;2.11;;;;;;;19.12;38.67;100434.52;;;;-53
2020/04/20 02:34:26;;;;;;;2.43;2.23;;;;;;;19.12;38.72;100434.28;;;;-53
2020/04/20 02:37:26;;;;;;;2.51;2.31;;;;;;;19.11;38.69;100435.58;;;;-54
2020/04/20 02:40:26;;;;;;;2.50;2.30;;;;;;;19.10;38.68;100435.03;;;;-53
2020/04/20 02:43:26;;;;;;;2.65;2.19;;;;;;;19.10;38.67;100436.20;;;;-52
2020/04/20 02:46:26;;;;;;;2.55;2.35;;;;;;;19.09;38.72;100439.94;;;;-54
2020/04/20 02:49:26;;;;;;;2.89;2.33;;;;;;;19.09;38.66;100435.59;;;;-53
2020/04/20 02:52:26;;;;;;;2.63;2.24;;;;;;;19.09;38.61;100433.87;;;;-53
2020/04/20 02:55:26;;;;;;;2.67;2.47;;;;;;;19.08;38.65;100437.84;;;;-53
2020/04/20 02:58:26;;;;;;;2.48;2.28;;;;;;;19.08;38.65;100425.84;;;;-53
2020/04/20 03:01:26;;;;;;;3.07;2.55;;;;;;;19.09;38.68;100433.97;;;;-55
2020/04/20 03:04:26;;;;;;;2.63;2.20;;;;;;;19.08;38.63;100428.06;;;;-53
2020/04/20 03:07:26;;;;;;;2.58;2.30;;;;;;;19.07;38.63;100422.34;;;;-53
2020/04/20 03:10:26;;;;;;;2.89;2.49;;;;;;;19.07;38.66;100425.62;;;;-54
2020/04/20 03:13:26;;;;;;;2.61;2.40;;;;;;;19.06;38.64;100418.88;;;;-53
2020/04/20 03:16:26;;;;;;;2.61;2.41;;;;;;;19.06;38.63;100416.60;;;;-54
2020/04/20 03:19:26;;;;;;;2.61;2.39;;;;;;;19.05;38.63;100420.17;;;;-54
2020/04/20 03:22:27;;;;;;;3.67;2.37;;;;;;;19.04;38.65;100413.27;;;;-55
2020/04/20 03:25:26;;;;;;;2.64;2.44;;;;;;;19.04;38.60;100415.11;;;;-54
2020/04/20 03:28:26;;;;;;;2.59;2.39;;;;;;;19.05;38.64;100417.95;;;;-55
2020/04/20 03:31:26;;;;;;;2.61;2.40;;;;;;;19.05;38.60;100416.12;;;;-52
2020/04/20 03:34:26;;;;;;;2.73;2.36;;;;;;;19.04;38.64;100418.12;;;;-53
2020/04/20 03:37:26;;;;;;;2.57;2.37;;;;;;;19.03;38.63;100415.40;;;;-55
2020/04/20 03:40:26;;;;;;;2.60;2.39;;;;;;;19.04;38.59;100418.19;;;;-54
2020/04/20 03:43:26;;;;;;;2.68;2.42;;;;;;;19.03;38.59;100414.29;;;;-53
2020/04/20 03:46:26;;;;;;;3.14;2.41;;;;;;;19.03;38.61;100413.63;;;;-52
2020/04/20 03:49:26;;;;;;;2.61;2.34;;;;;;;19.03;38.61;100412.78;;;;-53
2020/04/20 03:52:35;;;;;;;2.61;2.41;;;;;;;19.04;38.58;100412.16;;;;-53
2020/04/20 03:55:26;;;;;;;2.82;2.47;;;;;;;19.03;38.56;100407.59;;;;-53
2020/04/20 03:58:26;;;;;;;2.71;2.47;;;;;;;19.03;38.53;100414.13;;;;-55
2020/04/20 04:01:34;;;;;;;2.76;2.49;;;;;;;19.02;38.59;100409.39;;;;-53
2020/04/20 04:04:26;;;;;;;3.22;2.30;;;;;;;19.03;38.56;100409.20;;;;-53
2020/04/20 04:07:26;;;;;;;2.53;2.32;;;;;;;19.03;38.56;100414.28;;;;-54
2020/04/20 04:10:26;;;;;;;2.91;2.61;;;;;;;19.02;38.52;100419.77;;;;-53
2020/04/20 04:13:26;;;;;;;2.50;2.30;;;;;;;19.02;38.50;100428.30;;;;-53
2020/04/20 04:16:26;;;;;;;2.51;2.31;;;;;;;19.02;38.54;100425.22;;;;-53
2020/04/20 04:19:26;;;;;;;2.60;2.40;;;;;;;19.02;38.56;100430.98;;;;-53
2020/04/20 04:22:26;;;;;;;2.52;2.32;;;;;;;19.03;38.61;100443.84;;;;-53
2020/04/20 04:25:26;;;;;;;2.57;2.19;;;;;;;19.02;38.58;100445.31;;;;-53
2020/04/20 04:28:26;;;;;;;2.81;2.49;;;;;;;19.02;38.56;100448.72;;;;-53
2020/04/20 04:31:26;;;;;;;3.22;2.68;;;;;;;19.02;38.59;100450.06;;;;-55
2020/04/20 04:34:26;;;;;;;2.55;2.35;;;;;;;19.02;38.59;100457.86;;;;-54
2020/04/20 04:37:26;;;;;;;2.52;2.32;;;;;;;19.02;38.59;100456.25;;;;-53
2020/04/20 04:40:26;;;;;;;2.48;2.28;;;;;;;19.01;38.55;100449.52;;;;-53
2020/04/20 04:43:26;;;;;;;2.91;2.47;;;;;;;19.01;38.55;100455.81;;;;-54
2020/04/20 04:46:26;;;;;;;2.94;2.42;;;;;;;19.01;38.53;100454.47;;;;-54
2020/04/20 04:49:26;;;;;;;3.19;2.65;;;;;;;19.01;38.49;100453.13;;;;-53
2020/04/20 04:52:26;;;;;;;2.84;2.58;;;;;;;19.01;38.45;100456.55;;;;-53
2020/04/20 04:55:26;;;;;;;2.57;2.37;;;;;;;19.01;38.49;100465.58;;;;-52
2020/04/20 04:58:26;;;;;;;2.99;2.53;;;;;;;19.01;38.47;100466.18;;;;-55
2020/04/20 05:01:26;;;;;;;2.64;2.44;;;;;;;19.01;38.45;100470.60;;;;-53
2020/04/20 05:04:26;;;;;;;2.59;2.36;;;;;;;19.01;38.45;100471.11;;;;-52
2020/04/20 05:07:26;;;;;;;2.78;2.47;;;;;;;19.00;38.45;100479.20;;;;-53
2020/04/20 05:10:26;;;;;;;2.53;2.32;;;;;;;19.01;38.44;100480.97;;;;-54
2020/04/20 05:13:26;;;;;;;2.61;2.39;;;;;;;19.00;38.41;100483.44;;;;-53
2020/04/20 05:16:26;;;;;;;2.85;2.55;;;;;;;19.00;38.39;100486.45;;;;-53
2020/04/20 05:19:26;;;;;;;3.06;2.47;;;;;;;19.00;38.45;100487.23;;;;-53
2020/04/20 05:22:26;;;;;;;2.63;2.43;;;;;;;19.00;38.41;100483.61;;;;-53
2020/04/20 05:25:26;;;;;;;2.67;2.47;;;;;;;19.00;38.42;100488.73;;;;-53
2020/04/20 05:28:26;;;;;;;2.98;2.44;;;;;;;19.00;38.34;100490.12;;;;-53
2020/04/20 05:31:26;;;;;;;2.86;2.56;;;;;;;19.00;38.43;100490.47;;;;-53
2020/04/20 05:34:26;;;;;;;2.71;2.36;;;;;;;19.00;38.41;100483.38;;;;-54
2020/04/20 05:37:26;;;;;;;3.01;2.31;;;;;;;18.99;38.36;100487.02;;;;-54
2020/04/20 05:40:26;;;;;;;3.43;2.50;;;;;;;18.99;38.32;100485.41;;;;-53
2020/04/20 05:43:26;;;;;;;2.55;2.35;;;;;;;18.99;38.33;100489.69;;;;-53
2020/04/20 05:46:26;;;;;;;2.83;2.45;;;;;;;19.00;38.30;100488.56;;;;-53
2020/04/20 05:49:30;;;;;;;2.90;2.49;;;;;;;18.98;38.27;100489.98;;;;-53
2020/04/20 05:52:26;;;;;;;2.57;2.37;;;;;;;18.99;38.33;100489.09;;;;-53
2020/04/20 05:55:26;;;;;;;2.60;2.39;;;;;;;18.99;38.30;100488.41;;;;-53
2020/04/20 05:58:26;;;;;;;2.98;2.22;;;;;;;19.00;38.36;100494.81;;;;-54
2020/04/20 06:01:27;;;;;;;2.95;2.58;;;;;;;18.99;38.24;100498.28;;;;-53
2020/04/20 06:04:26;;;;;;;2.95;2.51;;;;;;;19.00;38.25;100498.94;;;;-53
2020/04/20 06:07:26;;;;;;;2.83;2.41;;;;;;;18.99;38.22;100493.77;;;;-53
2020/04/20 06:10:26;;;;;;;3.01;2.45;;;;;;;18.98;38.22;100493.05;;;;-54
2020/04/20 06:13:26;;;;;;;2.97;2.44;;;;;;;18.98;38.26;100501.02;;;;-54
2020/04/20 06:16:26;;;;;;;2.71;2.46;;;;;;;18.99;38.24;100495.44;;;;-53
2020/04/20 06:19:26;;;;;;;2.77;2.37;;;;;;;18.98;38.23;100495.89;;;;-53
2020/04/20 06:22:26;;;;;;;2.86;2.31;;;;;;;18.98;38.24;100495.23;;;;-53
2020/04/20 06:25:26;;;;;;;2.95;2.45;;;;;;;18.98;38.25;100491.66;;;;-53
2020/04/20 06:28:26;;;;;;;2.68;2.39;;;;;;;18.98;38.18;100487.69;;;;-53
2020/04/20 06:31:26;;;;;;;2.94;2.53;;;;;;;18.98;38.14;100488.98;;;;-54
2020/04/20 06:34:26;;;;;;;2.95;2.56;;;;;;;18.97;38.18;100484.24;;;;-53
2020/04/20 06:37:26;;;;;;;2.70;2.49;;;;;;;18.98;38.16;100484.52;;;;-54
2020/04/20 06:40:26;;;;;;;2.95;2.61;;;;;;;18.98;38.12;100483.19;;;;-54
2020/04/20 06:43:26;;;;;;;2.80;2.39;;;;;;;18.98;38.18;100485.36;;;;-54
2020/04/20 06:46:26;;;;;;;2.97;2.34;;;;;;;18.98;38.17;100483.68;;;;-53
2020/04/20 06:49:26;;;;;;;3.81;2.50;;;;;;;18.98;38.16;100479.27;;;;-54
2020/04/20 06:52:26;;;;;;;2.84;2.48;;;;;;;18.99;38.24;100481.15;;;;-50
2020/04/20 06:55:26;;;;;;;5.23;2.50;;;;;;;18.99;38.35;100480.22;;;;-48
2020/04/20 06:58:26;;;;;;;2.98;2.37;;;;;;;19.02;38.34;100480.12;;;;-51
2020/04/20 07:01:26;;;;;;;5.37;2.41;;;;;;;19.03;38.32;100478.50;;;;-61
2020/04/20 07:04:26;;;;;;;4.37;2.60;;;;;;;19.02;38.31;100471.59;;;;-61
2020/04/20 07:07:26;;;;;;;3.18;2.39;;;;;;;19.03;38.32;100472.80;;;;-48
2020/04/20 07:10:26;;;;;;;2.86;2.22;;;;;;;19.04;38.32;100473.19;;;;-55
2020/04/20 07:13:26;;;;;;;3.26;2.69;;;;;;;19.05;38.36;100473.19;;;;-60
2020/04/20 07:16:26;;;;;;;3.94;2.57;;;;;;;19.06;38.36;100465.38;;;;-58
2020/04/20 07:19:26;;;;;;;3.86;2.40;;;;;;;19.07;38.52;100466.69;;;;-56
2020/04/20 07:22:26;;;;;;;10.63;2.81;;;;;;;19.10;38.97;100467.06;;;;-54
2020/04/20 07:28:26;;;;;;;5.44;2.62;;;;;;;19.14;38.58;100461.52;;;;-55
2020/04/20 07:31:26;;;;;;;5.79;2.55;;;;;;;19.15;38.98;100455.28;;;;-56
2020/04/20 07:34:26;;;;;;;6.95;2.59;;;;;;;19.16;38.92;100447.02;;;;-61
2020/04/20 07:37:26;;;;;;;3.61;2.39;;;;;;;19.15;38.87;100448.95;;;;-60
2020/04/20 07:40:26;;;;;;;4.17;2.51;;;;;;;19.15;38.80;100441.22;;;;-60
2020/04/20 07:43:26;;;;;;;4.86;2.46;;;;;;;19.14;38.75;100438.83;;;;-60
2020/04/20 07:46:26;;;;;;;4.15;2.42;;;;;;;19.13;38.67;100437.88;;;;-52
2020/04/20 07:49:26;;;;;;;3.06;2.57;;;;;;;19.15;39.04;100439.94;;;;-51
2020/04/20 07:52:26;;;;;;;3.75;2.49;;;;;;;19.16;39.02;100434.44;;;;-53
2020/04/20 07:55:26;;;;;;;4.91;2.41;;;;;;;19.17;39.09;100426.64;;;;-56
2020/04/20 07:58:26;;;;;;;3.60;2.40;;;;;;;19.16;39.10;100431.09;;;;-55
2020/04/20 08:01:26;;;;;;;7.11;2.31;;;;;;;19.18;39.17;100430.57;;;;-53
2020/04/20 08:04:26;;;;;;;5.07;2.47;;;;;;;19.18;39.05;100424.48;;;;-51
2020/04/20 08:07:26;;;;;;;3.34;2.30;;;;;;;19.19;39.01;100423.98;;;;-56
2020/04/20 08:10:26;;;;;;;3.11;2.55;;;;;;;19.20;38.97;100419.34;;;;-55
2020/04/20 08:13:26;;;;;;;3.99;2.37;;;;;;;19.21;39.02;100423.67;;;;-52
2020/04/20 08:16:26;;;;;;;3.36;2.49;;;;;;;19.22;39.06;100418.93;;;;-52
2020/04/20 08:19:26;;;;;;;4.35;2.69;;;;;;;19.24;38.98;100423.03;;;;-55
2020/04/20 08:22:26;;;;;;;6.81;2.53;;;;;;;19.24;38.78;100422.20;;;;-51
2020/04/20 08:25:26;;;;;;;2.88;2.35;;;;;;;19.25;38.88;100422.69;;;;-56
2020/04/20 08:28:26;;;;;;;2.59;2.24;;;;;;;19.25;38.84;100420.50;;;;-56
2020/04/20 08:31:26;;;;;;;2.71;2.45;;;;;;;19.25;38.82;100417.83;;;;-53
2020/04/20 08:34:26;;;;;;;4.54;2.41;;;;;;;19.26;38.85;100422.56;;;;-52
2020/04/20 08:37:26;;;;;;;3.93;2.32;;;;;;;19.26;38.98;100414.77;;;;-49
2020/04/20 08:40:26;;;;;;;4.37;2.39;;;;;;;19.28;38.77;100421.81;;;;-55
2020/04/20 08:43:26;;;;;;;4.59;2.62;;;;;;;19.30;38.89;100425.05;;;;-56
2020/04/20 08:46:26;;;;;;;4.17;2.21;;;;;;;19.30;38.87;100428.56;;;;-56
2020/04/20 08:49:26;;;;;;;4.74;2.46;;;;;;;19.31;38.90;100423.85;;;;-53
2020/04/20 08:52:26;;;;;;;4.37;2.42;;;;;;;19.31;38.99;100426.20;;;;-52
2020/04/20 08:55:26;;;;;;;3.47;2.26;;;;;;;19.31;38.89;100426.87;;;;-54
2020/04/20 08:58:26;;;;;;;4.02;2.21;;;;;;;19.32;38.87;100424.73;;;;-52
2020/04/20 09:01:26;;;;;;;3.93;2.35;;;;;;;19.33;38.92;100427.69;;;;-52
2020/04/20 09:04:26;;;;;;;3.86;2.27;;;;;;;19.33;38.84;100417.41;;;;-59
2020/04/20 09:07:26;;;;;;;5.16;2.35;;;;;;;19.34;38.87;100431.69;;;;-59
2020/04/20 09:10:26;;;;;;;4.38;2.66;;;;;;;19.34;38.82;100428.11;;;;-57
2020/04/20 09:13:26;;;;;;;4.65;2.39;;;;;;;19.34;38.86;100432.87;;;;-51
2020/04/20 09:16:26;;;;;;;3.23;2.21;;;;;;;19.35;38.84;100420.75;;;;-58
2020/04/20 09:19:26;;;;;;;3.41;2.37;;;;;;;19.35;38.80;100417.67;;;;-58
2020/04/20 09:22:26;;;;;;;5.31;2.35;;;;;;;19.35;38.72;100428.33;;;;-58
2020/04/20 09:25:26;;;;;;;3.05;2.29;;;;;;;19.33;38.70;100417.41;;;;-59
2020/04/20 09:28:26;;;;;;;4.02;2.39;;;;;;;19.35;38.82;100411.38;;;;-51
2020/04/20 09:31:26;;;;;;;6.01;2.42;;;;;;;19.35;38.78;100424.44;;;;-50
2020/04/20 09:34:26;;;;;;;3.27;2.20;;;;;;;19.35;38.97;100426.65;;;;-53
2020/04/20 09:37:26;;;;;;;3.29;2.40;;;;;;;19.38;38.88;100431.50;;;;-53
2020/04/20 09:40:26;;;;;;;4.49;2.18;;;;;;;19.37;38.74;100423.22;;;;-51
2020/04/20 09:43:26;;;;;;;3.83;2.34;;;;;;;19.39;38.53;100433.16;;;;-55
2020/04/20 09:46:26;;;;;;;3.60;2.18;;;;;;;19.39;38.56;100427.36;;;;-50
2020/04/20 09:49:27;;;;;;;4.69;2.40;;;;;;;19.39;38.58;100426.18;;;;-55
2020/04/20 09:52:26;;;;;;;3.45;2.29;;;;;;;19.38;38.64;100419.87;;;;-56
2020/04/20 09:55:26;;;;;;;3.72;2.20;;;;;;;19.38;38.58;100419.25;;;;-53
2020/04/20 09:58:26;;;;;;;2.78;2.32;;;;;;;19.39;38.59;100416.73;;;;-55
2020/04/20 10:01:26;;;;;;;4.48;2.31;;;;;;;19.39;38.59;100408.41;;;;-52
2020/04/20 10:04:26;;;;;;;2.77;2.20;;;;;;;19.40;38.58;100409.25;;;;-51
2020/04/20 10:07:26;;;;;;;4.21;2.15;;;;;;;19.40;38.60;100404.33;;;;-54
2020/04/20 10:10:26;;;;;;;4.59;2.33;;;;;;;19.40;38.53;100401.71;;;;-52
2020/04/20 10:13:26;;;;;;;5.69;2.33;;;;;;;19.40;38.59;100409.02;;;;-52
2020/04/20 10:16:26;;;;;;;2.42;2.13;;;;;;;19.41;38.51;100395.05;;;;-51
2020/04/20 10:19:26;;;;;;;10.07;2.37;;;;;;;19.42;38.45;100386.23;;;;-54
2020/04/20 10:22:26;;;;;;;3.27;2.28;;;;;;;19.42;38.43;100380.09;;;;-57
2020/04/20 10:25:26;;;;;;;3.52;2.14;;;;;;;19.42;38.42;100381.94;;;;-53
2020/04/20 10:28:26;;;;;;;3.05;2.18;;;;;;;19.43;38.39;100385.33;;;;-58
2020/04/20 10:31:26;;;;;;;2.74;2.13;;;;;;;19.43;38.40;100391.45;;;;-52
2020/04/20 10:34:26;;;;;;;3.73;2.19;;;;;;;19.44;38.35;100398.55;;;;-51
2020/04/20 10:37:26;;;;;;;4.67;2.10;;;;;;;19.42;38.30;100393.70;;;;-50
2020/04/20 10:40:26;;;;;;;4.07;2.14;;;;;;;19.42;38.23;100389.47;;;;-51
2020/04/20 10:43:26;;;;;;;6.51;2.02;;;;;;;19.41;38.23;100383.27;;;;-51
2020/04/20 10:46:26;;;;;;;4.83;2.30;;;;;;;19.40;38.14;100380.15;;;;-51
2020/04/20 10:49:26;;;;;;;3.31;2.27;;;;;;;19.39;38.16;100374.47;;;;-51
2020/04/20 10:52:26;;;;;;;3.41;2.30;;;;;;;19.40;38.10;100376.98;;;;-51
2020/04/20 10:55:26;;;;;;;2.92;2.26;;;;;;;19.38;38.12;100372.31;;;;-51
2020/04/20 10:58:26;;;;;;;3.53;2.11;;;;;;;19.37;38.05;100364.17;;;;-51
2020/04/20 11:01:26;;;;;;;3.24;2.21;;;;;;;19.35;38.09;100365.42;;;;-52
2020/04/20 11:04:26;;;;;;;4.19;2.18;;;;;;;19.35;38.08;100355.95;;;;-50
2020/04/20 11:07:26;;;;;;;3.95;2.09;;;;;;;19.35;38.03;100372.02;;;;-50
2020/04/20 11:10:26;;;;;;;3.54;2.09;;;;;;;19.35;38.02;100365.42;;;;-50
2020/04/20 11:13:46;;;;;;;2.57;2.06;;;;;;;19.34;38.00;100362.70;;;;-50
2020/04/20 11:16:26;;;;;;;2.53;1.99;;;;;;;19.33;37.96;100361.05;;;;-50
2020/04/20 11:19:26;;;;;;;2.57;2.06;;;;;;;19.33;38.00;100341.39;;;;-50
2020/04/20 11:22:26;;;;;;;2.94;2.15;;;;;;;19.32;38.00;100344.36;;;;-50
2020/04/20 11:25:26;;;;;;;2.39;2.03;;;;;;;19.32;38.00;100349.89;;;;-50
2020/04/20 11:28:26;;;;;;;2.55;1.99;;;;;;;19.31;37.99;100338.45;;;;-50
2020/04/20 11:31:26;;;;;;;3.11;2.00;;;;;;;19.31;37.96;100339.70;;;;-50
2020/04/20 11:34:26;;;;;;;3.79;2.15;;;;;;;19.31;37.98;100342.98;;;;-50
2020/04/20 11:37:26;;;;;;;2.32;2.03;;;;;;;19.30;37.95;100348.63;;;;-51
2020/04/20 11:40:26;;;;;;;3.92;2.31;;;;;;;19.30;37.93;100342.37;;;;-50
2020/04/20 11:43:26;;;;;;;2.60;1.87;;;;;;;19.30;37.92;100359.41;;;;-50
2020/04/20 11:46:26;;;;;;;2.59;1.90;;;;;;;19.30;37.84;100342.67;;;;-50
2020/04/20 11:49:26;;;;;;;2.47;1.99;;;;;;;19.29;37.86;100334.52;;;;-50
2020/04/20 11:52:26;;;;;;;2.76;2.03;;;;;;;19.29;37.89;100337.36;;;;-50
2020/04/20 11:55:26;;;;;;;1.91;1.79;;;;;;;19.28;37.88;100323.09;;;;-51
2020/04/20 11:58:26;;;;;;;2.00;1.80;;;;;;;19.27;37.87;100332.20;;;;-49
2020/04/20 12:01:26;;;;;;;2.34;1.90;;;;;;;19.29;38.05;100337.44;;;;-51
2020/04/20 12:04:26;;;;;;;4.19;2.03;;;;;;;19.30;38.29;100319.06;;;;-52
2020/04/20 12:07:26;;;;;;;2.85;1.85;;;;;;;19.30;38.32;100323.84;;;;-55
2020/04/20 12:10:26;;;;;;;3.23;2.11;;;;;;;19.31;38.28;100326.91;;;;-55
2020/04/20 12:13:26;;;;;;;2.07;1.83;;;;;;;19.31;38.37;100318.20;;;;-54
2020/04/20 12:16:26;;;;;;;2.32;1.94;;;;;;;19.32;38.40;100317.64;;;;-54
2020/04/20 12:19:26;;;;;;;2.42;1.88;;;;;;;19.34;38.30;100317.22;;;;-61
2020/04/20 12:22:26;;;;;;;3.38;1.90;;;;;;;19.33;38.27;100319.22;;;;-58
2020/04/20 12:25:26;;;;;;;2.36;2.00;;;;;;;19.34;38.22;100310.86;;;;-52
2020/04/20 12:28:26;;;;;;;2.08;1.85;;;;;;;19.35;38.27;100289.13;;;;-51
2020/04/20 12:31:26;;;;;;;2.95;2.01;;;;;;;19.37;37.93;100281.74;;;;-50
2020/04/20 12:34:26;;;;;;;2.71;1.93;;;;;;;19.35;38.17;100278.62;;;;-58
2020/04/20 12:37:26;;;;;;;6.19;2.00;;;;;;;19.38;38.14;100281.95;;;;-52
2020/04/20 12:42:26;;;;;;;5.20;1.91;;;;;;;19.36;38.09;100269.85;;;;-54
2020/04/20 12:45:26;;;;;;;3.30;2.02;;;;;;;19.35;38.06;100260.94;;;;-52
2020/04/20 12:48:26;;;;;;;3.55;1.92;;;;;;;19.35;38.04;100266.02;;;;-52
2020/04/20 12:51:26;;;;;;;6.67;2.01;;;;;;;19.34;38.00;100261.56;;;;-53
2020/04/20 12:54:26;;;;;;;2.50;2.00;;;;;;;19.34;38.04;100257.44;;;;-53
2020/04/20 12:57:26;;;;;;;3.45;2.03;;;;;;;19.33;38.00;100253.75;;;;-53
2020/04/20 13:00:26;;;;;;;3.20;2.00;;;;;;;19.33;37.96;100257.94;;;;-52
2020/04/20 13:03:26;;;;;;;4.13;1.94;;;;;;;19.32;37.88;100249.59;;;;-54
2020/04/20 13:06:26;;;;;;;3.39;2.03;;;;;;;19.32;37.89;100249.75;;;;-52
2020/04/20 13:09:26;;;;;;;2.69;1.89;;;;;;;19.31;37.84;100241.41;;;;-51
2020/04/20 13:12:26;;;;;;;2.55;1.88;;;;;;;19.31;37.82;100235.98;;;;-52
2020/04/20 13:15:26;;;;;;;2.71;1.97;;;;;;;19.31;37.88;100243.69;;;;-52
2020/04/20 13:18:26;;;;;;;2.49;1.80;;;;;;;19.31;37.84;100236.77;;;;-53
2020/04/20 13:21:26;;;;;;;2.17;1.85;;;;;;;19.31;37.82;100225.61;;;;-52
2020/04/20 13:24:26;;;;;;;3.59;1.78;;;;;;;19.30;37.92;100223.66;;;;-55
2020/04/20 13:27:26;;;;;;;5.10;1.89;;;;;;;19.32;38.06;100233.08;;;;-55
2020/04/20 13:30:26;;;;;;;2.99;1.81;;;;;;;19.34;38.09;100230.98;;;;-52
2020/04/20 13:33:26;;;;;;;4.35;2.00;;;;;;;19.35;38.17;100215.83;;;;-51
2020/04/20 13:36:26;;;;;;;2.35;1.70;;;;;;;19.36;38.18;100218.21;;;;-59
2020/04/20 13:39:26;;;;;;;2.96;1.89;;;;;;;19.38;38.27;100218.86;;;;-52
2020/04/20 13:42:26;;;;;;;3.65;1.73;;;;;;;19.40;38.22;100215.22;;;;-52
2020/04/20 13:45:26;;;;;;;2.25;1.79;;;;;;;19.40;38.25;100200.86;;;;-52
2020/04/20 13:48:26;;;;;;;2.67;1.71;;;;;;;19.41;38.22;100198.34;;;;-53
2020/04/20 13:51:26;;;;;;;2.35;1.82;;;;;;;19.40;38.27;100190.91;;;;-57
2020/04/20 13:54:26;;;;;;;3.34;1.77;;;;;;;19.44;38.45;100194.78;;;;-51
2020/04/20 13:57:26;;;;;;;5.33;1.83;;;;;;;19.43;38.40;100186.47;;;;-57
2020/04/20 14:00:26;;;;;;;2.81;1.82;;;;;;;19.43;38.29;100185.84;;;;-55
2020/04/20 14:03:27;;;;;;;5.12;1.90;;;;;;;19.42;38.23;100183.75;;;;-55
2020/04/20 14:06:26;;;;;;;4.33;1.79;;;;;;;19.42;38.18;100173.61;;;;-56
2020/04/20 14:09:26;;;;;;;3.15;1.85;;;;;;;19.41;38.20;100179.42;;;;-57
2020/04/20 14:12:26;;;;;;;3.30;2.13;;;;;;;19.40;38.12;100181.50;;;;-55
2020/04/20 14:15:26;;;;;;;4.88;1.74;;;;;;;19.40;38.06;100171.95;;;;-56
2020/04/20 14:18:26;;;;;;;3.59;1.82;;;;;;;19.39;38.02;100164.04;;;;-56
2020/04/20 14:21:26;;;;;;;4.15;1.83;;;;;;;19.39;38.02;100157.45;;;;-55
2020/04/20 14:24:26;;;;;;;2.40;1.66;;;;;;;19.38;37.97;100165.17;;;;-55
2020/04/20 14:27:26;;;;;;;2.57;1.83;;;;;;;19.38;37.94;100166.52;;;;-56
2020/04/20 14:30:26;;;;;;;2.89;1.62;;;;;;;19.37;37.89;100153.48;;;;-56
2020/04/20 14:33:26;;;;;;;3.39;1.85;;;;;;;19.36;37.91;100153.77;;;;-56
2020/04/20 14:36:26;;;;;;;2.13;1.60;;;;;;;19.35;37.89;100144.66;;;;-57
2020/04/20 14:39:26;;;;;;;2.95;1.63;;;;;;;19.35;37.84;100146.13;;;;-57
2020/04/20 14:42:26;;;;;;;3.60;1.70;;;;;;;19.35;37.78;100155.78;;;;-57
2020/04/20 14:45:26;;;;;;;2.66;1.61;;;;;;;19.35;37.82;100153.94;;;;-57
2020/04/20 14:48:26;;;;;;;3.19;1.65;;;;;;;19.34;37.79;100147.93;;;;-57
2020/04/20 14:51:26;;;;;;;2.15;1.69;;;;;;;19.33;37.77;100150.61;;;;-57
2020/04/20 14:54:26;;;;;;;2.50;1.67;;;;;;;19.33;37.75;100150.44;;;;-57
2020/04/20 14:57:26;;;;;;;2.97;1.70;;;;;;;19.34;37.99;100151.05;;;;-60
2020/04/20 15:00:26;;;;;;;3.30;1.75;;;;;;;19.35;38.13;100153.77;;;;-56
2020/04/20 15:03:26;;;;;;;3.15;1.62;;;;;;;19.36;38.13;100145.40;;;;-56
2020/04/20 15:06:26;;;;;;;3.09;1.76;;;;;;;19.36;38.22;100144.70;;;;-56
2020/04/20 15:09:26;;;;;;;2.77;1.55;;;;;;;19.37;38.20;100146.61;;;;-55
2020/04/20 15:12:26;;;;;;;2.67;1.75;;;;;;;19.37;38.22;100139.72;;;;-52
2020/04/20 15:15:26;;;;;;;2.87;1.64;;;;;;;19.38;38.18;100147.46;;;;-52
2020/04/20 15:18:26;;;;;;;2.77;1.79;;;;;;;19.39;38.20;100142.94;;;;-52
2020/04/20 15:21:26;;;;;;;2.15;1.50;;;;;;;19.40;38.24;100132.00;;;;-54
2020/04/20 15:24:26;;;;;;;2.31;1.58;;;;;;;19.41;38.17;100130.12;;;;-53
2020/04/20 15:27:26;;;;;;;4.01;1.50;;;;;;;19.41;38.18;100134.34;;;;-51
2020/04/20 15:30:26;;;;;;;3.66;1.50;;;;;;;19.42;38.16;100131.67;;;;-60
2020/04/20 15:33:26;;;;;;;1.95;1.60;;;;;;;19.42;38.03;100126.88;;;;-55
2020/04/20 15:36:26;;;;;;;3.53;1.65;;;;;;;19.44;38.13;100124.05;;;;-55
2020/04/20 15:39:26;;;;;;;3.42;1.61;;;;;;;19.44;38.10;100120.12;;;;-57
2020/04/20 15:42:26;;;;;;;2.31;1.68;;;;;;;19.45;38.04;100116.66;;;;-60
2020/04/20 15:45:26;;;;;;;2.72;1.67;;;;;;;19.44;37.92;100114.84;;;;-58
2020/04/20 15:48:26;;;;;;;4.96;1.93;;;;;;;19.45;37.92;100115.37;;;;-57
2020/04/20 15:51:26;;;;;;;2.32;1.68;;;;;;;19.45;37.90;100119.00;;;;-61
2020/04/20 15:54:26;;;;;;;1.94;1.69;;;;;;;19.46;37.86;100123.30;;;;-51
2020/04/20 15:57:26;;;;;;;2.97;1.60;;;;;;;19.45;37.89;100118.83;;;;-59
2020/04/20 16:00:26;;;;;;;2.50;1.51;;;;;;;19.46;37.83;100123.19;;;;-64
2020/04/20 16:03:26;;;;;;;1.93;1.63;;;;;;;19.47;37.83;100125.23;;;;-61
2020/04/20 16:06:26;;;;;;;2.49;1.67;;;;;;;19.47;37.81;100121.38;;;;-56
2020/04/20 16:09:26;;;;;;;2.90;1.73;;;;;;;19.47;37.90;100115.56;;;;-54
2020/04/20 16:12:26;;;;;;;2.69;1.53;;;;;;;19.47;37.79;100113.62;;;;-55
2020/04/20 16:15:26;;;;;;;2.82;1.59;;;;;;;19.49;37.84;100113.09;;;;-56
2020/04/20 16:18:26;;;;;;;8.69;1.78;;;;;;;19.50;37.79;100119.43;;;;-52
2020/04/20 16:21:26;;;;;;;3.82;1.71;;;;;;;19.52;37.40;100127.55;;;;-52
2020/04/20 16:24:26;;;;;;;2.31;1.43;;;;;;;19.52;37.26;100130.45;;;;-54
2020/04/20 16:27:26;;;;;;;4.74;1.56;;;;;;;19.53;36.93;100135.69;;;;-53
2020/04/20 16:30:26;;;;;;;5.77;1.85;;;;;;;19.52;37.35;100134.41;;;;-52
2020/04/20 16:33:26;;;;;;;4.78;1.75;;;;;;;19.52;37.42;100131.80;;;;-52
2020/04/20 16:36:26;;;;;;;2.35;1.59;;;;;;;19.52;37.41;100126.11;;;;-63
2020/04/20 16:39:26;;;;;;;3.04;1.60;;;;;;;19.53;37.38;100133.34;;;;-57
2020/04/20 16:42:26;;;;;;;3.31;1.59;;;;;;;19.53;37.30;100127.08;;;;-53
2020/04/20 16:45:26;;;;;;;5.44;1.74;;;;;;;19.53;37.24;100131.94;;;;-52
2020/04/20 16:48:26;;;;;;;2.55;1.49;;;;;;;19.54;37.10;100137.73;;;;-54
2020/04/20 16:51:26;;;;;;;1.67;1.47;;;;;;;19.53;37.17;100141.48;;;;-57
2020/04/20 16:54:26;;;;;;;4.09;1.51;;;;;;;19.52;37.11;100143.13;;;;-60